createdAt,value
2022-11-24T00:01:05.770Z,5.90
2022-11-24T00:03:33.611Z,6.00
2022-11-24T00:06:05.576Z,5.87
2022-11-24T00:08:34.861Z,6.33
2022-11-24T00:11:07.165Z,5.63
2022-11-24T00:13:35.309Z,6.00
2022-11-24T00:16:07.888Z,5.43
2022-11-24T00:18:35.567Z,5.67
2022-11-24T00:21:03.369Z,5.77
2022-11-24T00:23:31.076Z,6.23
2022-11-24T00:26:06.976Z,5.50
2022-11-24T00:28:36.191Z,5.47
2022-11-24T00:31:04.274Z,5.90
2022-11-24T00:33:32.166Z,5.33
2022-11-24T00:36:01.243Z,6.00
2022-11-24T00:38:28.876Z,5.47
2022-11-24T00:40:56.526Z,5.20
2022-11-24T00:43:25.553Z,5.07
2022-11-24T00:45:53.281Z,5.10
2022-11-24T00:48:21.034Z,5.00
2022-11-24T00:50:56.859Z,4.90
2022-11-24T00:53:24.545Z,5.00
2022-11-24T00:55:52.624Z,4.10
2022-11-24T00:58:20.410Z,4.40
2022-11-24T01:00:49.690Z,4.20
2022-11-24T01:03:18.102Z,4.40
2022-11-24T01:05:45.861Z,4.50
2022-11-24T01:08:13.717Z,4.00
2022-11-24T01:10:41.407Z,4.13
2022-11-24T01:13:09.049Z,3.80
2022-11-24T01:15:37.628Z,3.70
2022-11-24T01:18:07.308Z,4.53
2022-11-24T01:20:34.996Z,4.10
2022-11-24T01:23:02.717Z,3.37
2022-11-24T01:25:30.396Z,3.50
2022-11-24T01:27:58.090Z,3.90
2022-11-24T01:30:25.734Z,3.40
2022-11-24T01:32:53.411Z,3.73
2022-11-24T01:35:22.438Z,3.53
2022-11-24T01:37:50.102Z,3.37
2022-11-24T01:40:17.918Z,3.17
2022-11-24T01:42:49.418Z,2.93
2022-11-24T01:45:44.705Z,2.93
2022-11-24T01:48:17.192Z,2.90
2022-11-24T01:50:47.096Z,3.00
2022-11-24T01:53:15.307Z,2.83
2022-11-24T01:55:43.001Z,2.90
2022-11-24T01:58:14.460Z,3.03
2022-11-24T02:00:44.367Z,2.80
2022-11-24T02:03:13.285Z,2.97
2022-11-24T02:05:44.364Z,2.83
2022-11-24T02:08:16.600Z,2.90
2022-11-24T02:10:44.302Z,2.90
2022-11-24T02:13:11.976Z,3.00
2022-11-24T02:15:39.740Z,2.70
2022-11-24T02:18:07.410Z,2.50
2022-11-24T02:20:35.193Z,2.80
2022-11-24T02:23:05.827Z,2.87
2022-11-24T02:25:40.855Z,2.37
2022-11-24T02:28:14.145Z,3.00
2022-11-24T02:30:41.903Z,2.70
2022-11-24T02:33:11.065Z,2.50
2022-11-24T02:35:39.020Z,2.80
2022-11-24T02:38:06.895Z,2.33
2022-11-24T02:40:34.640Z,2.40
2022-11-24T02:43:05.953Z,2.50
2022-11-24T02:45:34.987Z,2.30
2022-11-24T02:48:02.744Z,2.43
2022-11-24T02:50:30.392Z,2.50
2022-11-24T02:52:58.122Z,2.73
2022-11-24T02:55:25.839Z,2.90
2022-11-24T02:57:53.512Z,3.17
2022-11-24T03:00:21.490Z,2.70
2022-11-24T03:02:50.682Z,2.80
2022-11-24T03:05:19.218Z,2.60
2022-11-24T03:07:46.883Z,2.60
2022-11-24T03:10:14.757Z,2.60
2022-11-24T03:12:42.428Z,2.70
2022-11-24T03:15:11.228Z,3.00
2022-11-24T03:17:38.923Z,2.93
2022-11-24T03:20:09.615Z,2.67
2022-11-24T03:22:38.060Z,3.17
2022-11-24T03:25:06.225Z,2.90
2022-11-24T03:27:33.874Z,2.70
2022-11-24T03:30:01.553Z,2.83
2022-11-24T03:32:29.193Z,3.10
2022-11-24T03:34:56.846Z,3.00
2022-11-24T03:37:25.919Z,3.07
2022-11-24T03:39:53.591Z,2.80
2022-11-24T03:42:21.228Z,2.60
2022-11-24T03:44:48.925Z,2.70
2022-11-24T03:47:16.595Z,2.20
2022-11-24T03:49:44.255Z,2.50
2022-11-24T03:52:11.965Z,2.67
2022-11-24T03:54:42.319Z,2.87
2022-11-24T03:57:10.119Z,2.40
2022-11-24T03:59:37.757Z,2.30
2022-11-24T04:02:05.452Z,2.50
2022-11-24T04:04:33.605Z,2.70
2022-11-24T04:07:01.416Z,2.20
2022-11-24T04:09:29.111Z,2.10
2022-11-24T04:12:15.475Z,2.30
2022-11-24T04:14:43.088Z,2.47
2022-11-24T04:17:10.793Z,2.50
2022-11-24T04:19:38.488Z,2.13
2022-11-24T04:22:06.180Z,2.00
2022-11-24T04:24:34.095Z,1.97
2022-11-24T04:27:03.334Z,2.07
2022-11-24T04:29:30.998Z,2.00
2022-11-24T04:31:58.668Z,1.70
2022-11-24T04:34:26.327Z,2.17
2022-11-24T04:36:54.054Z,1.80
2022-11-24T04:39:26.488Z,2.13
2022-11-24T04:41:56.672Z,2.10
2022-11-24T04:44:25.705Z,1.80
2022-11-24T04:46:53.693Z,2.20
2022-11-24T04:49:21.415Z,1.97
2022-11-24T04:51:49.148Z,1.97
2022-11-24T04:54:17.101Z,1.60
2022-11-24T04:56:44.922Z,1.77
2022-11-24T04:59:14.387Z,1.70
2022-11-24T05:01:43.913Z,1.80
2022-11-24T05:04:12.588Z,1.63
2022-11-24T05:06:40.386Z,1.70
2022-11-24T05:09:08.967Z,1.60
2022-11-24T05:11:36.612Z,1.50
2022-11-24T05:14:04.271Z,1.73
2022-11-24T05:16:31.943Z,1.80
2022-11-24T05:19:01.045Z,1.80
2022-11-24T05:21:28.868Z,1.43
2022-11-24T05:23:56.530Z,1.63
2022-11-24T05:26:24.140Z,1.43
2022-11-24T05:28:51.907Z,1.53
2022-11-24T05:31:19.941Z,1.30
2022-11-24T05:33:47.664Z,1.50
2022-11-24T05:36:30.614Z,1.80
2022-11-24T05:38:58.268Z,1.30
2022-11-24T05:41:25.962Z,1.47
2022-11-24T05:43:53.761Z,1.70
2022-11-24T05:46:21.505Z,2.00
2022-11-24T05:48:49.456Z,1.90
2022-11-24T05:51:18.434Z,2.07
2022-11-24T05:53:46.102Z,2.47
2022-11-24T05:56:13.720Z,2.80
2022-11-24T05:58:41.364Z,3.10
2022-11-24T06:01:09.243Z,2.57
2022-11-24T06:03:36.873Z,2.17
2022-11-24T06:06:04.672Z,1.97
2022-11-24T06:08:33.715Z,1.93
2022-11-24T06:11:17.134Z,2.00
2022-11-24T06:13:45.561Z,1.50
2022-11-24T06:16:14.285Z,1.53
2022-11-24T06:18:42.218Z,1.80
2022-11-24T06:21:11.598Z,1.90
2022-11-24T06:23:41.224Z,1.73
2022-11-24T06:26:09.293Z,2.17
2022-11-24T06:28:37.383Z,2.07
2022-11-24T06:31:05.726Z,2.30
2022-11-24T06:33:34.383Z,2.23
2022-11-24T06:36:03.545Z,2.47
2022-11-24T06:38:31.574Z,2.03
2022-11-24T06:41:06.254Z,2.03
2022-11-24T06:43:34.601Z,2.33
2022-11-24T06:46:03.003Z,2.70
2022-11-24T06:48:31.118Z,3.60
2022-11-24T06:51:00.185Z,4.13
2022-11-24T06:53:28.100Z,4.20
2022-11-24T06:55:58.904Z,4.30
2022-11-24T06:58:28.028Z,3.70
2022-11-24T07:00:55.752Z,3.50
2022-11-24T07:03:23.533Z,3.33
2022-11-24T07:05:57.268Z,2.93
2022-11-24T07:08:25.060Z,3.20
2022-11-24T07:10:53.478Z,3.10
2022-11-24T07:13:21.234Z,3.20
2022-11-24T07:18:25.473Z,3.00
2022-11-24T07:20:53.120Z,3.00
2022-11-24T07:23:20.775Z,2.90
2022-11-24T07:25:48.493Z,2.27
2022-11-24T07:28:16.163Z,2.87
2022-11-24T07:30:43.848Z,3.17
2022-11-24T07:33:11.519Z,2.90
2022-11-24T07:35:40.586Z,2.73
2022-11-24T07:38:08.211Z,2.80
2022-11-24T07:40:35.835Z,2.83
2022-11-24T07:43:03.548Z,2.77
2022-11-24T07:45:31.257Z,2.30
2022-11-24T07:47:58.971Z,2.43
2022-11-24T07:50:26.620Z,2.37
2022-11-24T07:52:55.684Z,2.07
2022-11-24T07:55:23.378Z,1.97
2022-11-24T07:57:50.990Z,2.50
2022-11-24T08:00:19.387Z,2.83
2022-11-24T08:02:47.098Z,2.50
2022-11-24T08:05:14.801Z,2.70
2022-11-24T08:07:42.561Z,2.50
2022-11-24T08:10:11.735Z,2.37
2022-11-24T08:12:39.419Z,2.20
2022-11-24T08:15:11.175Z,2.50
2022-11-24T08:17:39.501Z,2.30
2022-11-24T08:20:08.849Z,2.70
2022-11-24T08:22:36.570Z,2.67
2022-11-24T08:25:04.264Z,2.60
2022-11-24T08:27:33.291Z,2.40
2022-11-24T08:30:00.996Z,2.30
2022-11-24T08:32:28.807Z,2.50
2022-11-24T08:35:08.463Z,2.93
2022-11-24T08:37:41.002Z,2.63
2022-11-24T08:40:09.770Z,3.03
2022-11-24T08:42:38.815Z,2.90
2022-11-24T08:45:19.848Z,2.83
2022-11-24T08:47:52.864Z,2.13
2022-11-24T08:50:20.580Z,2.93
2022-11-24T08:52:48.270Z,2.40
2022-11-24T08:55:16.151Z,3.03
2022-11-24T08:57:46.816Z,2.77
2022-11-24T09:00:22.035Z,3.00
2022-11-24T09:02:57.139Z,2.60
2022-11-24T09:05:50.781Z,2.30
2022-11-24T09:08:12.853Z,2.70
2022-11-24T09:10:40.512Z,2.60
2022-11-24T09:13:09.490Z,2.80
2022-11-24T09:15:37.365Z,2.40
2022-11-24T09:18:05.507Z,2.57
2022-11-24T09:20:33.157Z,2.40
2022-11-24T09:23:01.038Z,2.70
2022-11-24T09:25:28.767Z,2.47
2022-11-24T09:27:57.153Z,2.57
2022-11-24T09:30:26.430Z,2.70
2022-11-24T09:32:56.644Z,2.50
2022-11-24T09:35:24.467Z,2.50
2022-11-24T09:37:52.159Z,2.40
2022-11-24T09:40:20.070Z,2.93
2022-11-24T09:42:55.195Z,2.47
2022-11-24T09:45:57.478Z,2.50
2022-11-24T09:48:24.063Z,2.50
2022-11-24T09:50:51.883Z,2.63
2022-11-24T09:53:26.924Z,2.80
2022-11-24T09:55:56.439Z,2.90
2022-11-24T09:58:43.326Z,3.07
2022-11-24T10:01:18.001Z,2.70
2022-11-24T10:03:47.621Z,3.03
2022-11-24T10:06:23.757Z,3.27
2022-11-24T10:09:25.896Z,3.10
2022-11-24T10:12:01.068Z,3.30
2022-11-24T10:14:55.839Z,2.70
2022-11-24T10:17:33.209Z,2.60
2022-11-24T10:20:04.886Z,3.13
2022-11-24T10:22:43.763Z,2.90
2022-11-24T10:25:20.231Z,2.50
2022-11-24T10:27:50.732Z,3.10
2022-11-24T10:30:20.917Z,2.63
2022-11-24T10:32:50.769Z,2.80
2022-11-24T10:35:21.635Z,3.23
2022-11-24T10:37:55.915Z,3.20
2022-11-24T10:40:55.299Z,3.30
2022-11-24T10:43:15.679Z,3.33
2022-11-24T10:45:43.405Z,2.73
2022-11-24T10:48:18.826Z,2.93
2022-11-24T10:50:46.519Z,3.33
2022-11-24T10:53:17.933Z,3.13
2022-11-24T10:55:59.103Z,2.60
2022-11-24T10:58:30.528Z,3.50
2022-11-24T11:01:02.626Z,2.70
2022-11-24T11:03:33.689Z,3.10
2022-11-24T11:06:05.390Z,3.00
2022-11-24T11:08:33.618Z,2.80
2022-11-24T11:11:15.703Z,2.97
2022-11-24T11:13:56.882Z,3.57
2022-11-24T11:19:20.171Z,3.47
2022-11-24T11:22:01.023Z,4.03
2022-11-24T11:24:29.068Z,4.20
2022-11-24T11:27:01.248Z,4.17
2022-11-24T11:35:12.855Z,4.30
2022-11-24T11:37:40.767Z,4.27
2022-11-24T11:40:15.562Z,4.37
2022-11-24T11:43:02.051Z,4.33
2022-11-24T11:45:35.262Z,4.40
2022-11-24T11:48:15.179Z,4.33
2022-11-24T11:51:21.149Z,4.33
2022-11-24T11:53:44.721Z,4.10
2022-11-24T11:56:22.964Z,3.30
2022-11-24T11:59:11.185Z,3.63
2022-11-24T12:01:47.503Z,3.93
2022-11-24T12:04:21.158Z,3.53
2022-11-24T12:07:16.667Z,3.33
2022-11-24T12:09:53.774Z,3.33
2022-11-24T12:12:50.164Z,3.60
2022-11-24T12:15:22.746Z,4.03
2022-11-24T12:17:53.981Z,3.80
2022-11-24T12:20:34.342Z,3.60
2022-11-24T12:23:11.221Z,4.00
2022-11-24T12:25:42.084Z,3.40
2022-11-24T12:28:19.479Z,3.17
2022-11-24T12:30:53.594Z,3.20
2022-11-24T12:33:53.204Z,3.87
2022-11-24T12:36:33.637Z,3.37
2022-11-24T12:39:07.442Z,3.13
2022-11-24T12:41:49.201Z,3.10
2022-11-24T12:44:30.387Z,3.37
2022-11-24T12:47:02.796Z,3.20
2022-11-24T12:49:35.733Z,3.43
2022-11-24T12:52:06.607Z,4.03
2022-11-24T12:54:39.048Z,3.50
2022-11-24T12:57:08.826Z,3.20
2022-11-24T12:59:43.794Z,3.37
2022-11-24T13:02:19.996Z,3.30
2022-11-24T13:04:51.947Z,3.27
2022-11-24T13:07:23.504Z,3.50
2022-11-24T13:10:54.139Z,3.43
2022-11-24T13:13:16.592Z,3.40
2022-11-24T13:16:35.671Z,3.60
2022-11-24T13:19:15.701Z,3.37
2022-11-24T13:22:11.137Z,3.27
2022-11-24T13:24:40.184Z,2.97
2022-11-24T13:27:27.903Z,3.30
2022-11-24T13:29:56.977Z,3.30
2022-11-24T13:32:48.182Z,3.70
2022-11-24T13:35:16.846Z,3.40
2022-11-24T13:37:55.019Z,3.40
2022-11-24T13:40:54.613Z,3.93
2022-11-24T13:43:31.155Z,4.10
2022-11-24T13:46:00.207Z,3.90
2022-11-24T13:49:01.710Z,3.70
2022-11-24T13:51:29.435Z,4.23
2022-11-24T13:53:58.181Z,3.83
2022-11-24T13:56:31.099Z,3.47
2022-11-24T13:59:01.152Z,3.40
2022-11-24T14:01:31.791Z,3.60
2022-11-24T14:07:01.188Z,3.47
2022-11-24T14:09:37.986Z,3.60
2022-11-24T14:12:11.232Z,3.67
2022-11-24T14:14:39.020Z,3.10
2022-11-24T14:17:16.945Z,3.40
2022-11-24T14:19:45.584Z,3.43
2022-11-24T14:22:21.448Z,3.50
2022-11-24T14:24:56.684Z,3.40
2022-11-24T14:27:28.738Z,3.70
2022-11-24T14:29:57.889Z,4.27
2022-11-24T14:32:26.966Z,4.40
2022-11-24T14:34:55.545Z,4.10
2022-11-24T14:37:23.488Z,3.50
2022-11-24T14:39:51.219Z,3.50
2022-11-24T14:42:21.142Z,2.90
2022-11-24T14:44:52.779Z,3.10
2022-11-24T14:47:30.132Z,3.13
2022-11-24T14:50:09.116Z,2.97
2022-11-24T14:52:37.140Z,3.30
2022-11-24T14:55:21.960Z,3.40
2022-11-24T14:57:50.412Z,3.37
2022-11-24T15:00:20.728Z,3.70
2022-11-24T15:02:51.856Z,3.30
2022-11-24T15:05:21.727Z,3.60
2022-11-24T15:07:50.822Z,3.20
2022-11-24T15:10:22.055Z,3.30
2022-11-24T15:12:53.437Z,3.57
2022-11-24T15:15:21.989Z,3.57
2022-11-24T15:17:51.321Z,3.40
2022-11-24T15:20:24.660Z,3.60
2022-11-24T15:22:52.798Z,3.40
2022-11-24T15:25:31.660Z,3.93
2022-11-24T15:27:59.529Z,3.60
2022-11-24T15:30:27.713Z,3.80
2022-11-24T15:32:56.805Z,3.80
2022-11-24T15:35:27.252Z,4.40
2022-11-24T15:37:54.961Z,4.47
2022-11-24T15:40:22.766Z,4.53
2022-11-24T15:42:53.152Z,4.07
2022-11-24T15:45:22.474Z,4.30
2022-11-24T15:47:50.195Z,4.33
2022-11-24T15:50:18.460Z,4.83
2022-11-24T15:52:47.921Z,4.60
2022-11-24T15:55:19.278Z,4.63
2022-11-24T15:57:47.345Z,4.90
2022-11-24T16:00:17.503Z,5.17
2022-11-24T16:02:45.278Z,5.47
2022-11-24T16:05:13.279Z,5.43
2022-11-24T16:07:41.297Z,5.73
2022-11-24T16:10:19.461Z,5.93
2022-11-24T16:12:47.159Z,5.03
2022-11-24T16:15:14.917Z,5.83
2022-11-24T16:17:42.608Z,6.50
2022-11-24T16:20:11.224Z,7.10
2022-11-24T16:22:38.972Z,8.47
2022-11-24T16:25:07.615Z,9.20
2022-11-24T16:27:36.678Z,9.97
2022-11-24T16:30:05.254Z,9.17
2022-11-24T16:32:32.995Z,9.73
2022-11-24T16:35:00.629Z,9.93
2022-11-24T16:37:28.355Z,10.27
2022-11-24T16:39:56.107Z,9.87
2022-11-24T16:42:23.794Z,10.10
2022-11-24T16:44:52.814Z,9.70
2022-11-24T16:47:20.534Z,9.07
2022-11-24T16:49:48.675Z,9.87
2022-11-24T16:52:16.577Z,9.13
2022-11-24T16:54:44.644Z,8.90
2022-11-24T16:57:14.926Z,8.20
2022-11-24T16:59:45.864Z,7.90
2022-11-24T17:02:15.253Z,8.40
2022-11-24T17:04:42.959Z,8.63
2022-11-24T17:07:10.721Z,9.00
2022-11-24T17:09:40.773Z,9.30
2022-11-24T17:12:08.785Z,8.70
2022-11-24T17:14:37.132Z,9.03
2022-11-24T17:19:52.660Z,10.07
2022-11-24T17:22:20.316Z,12.00
2022-11-24T17:24:48.026Z,13.17
2022-11-24T17:27:15.654Z,14.27
2022-11-24T17:29:43.568Z,15.60
2022-11-24T17:32:11.247Z,16.57
2022-11-24T17:34:39.109Z,16.53
2022-11-24T17:37:08.158Z,16.93
2022-11-24T17:39:35.803Z,17.27
2022-11-24T17:42:03.795Z,16.77
2022-11-24T17:44:31.753Z,17.03
2022-11-24T17:47:00.819Z,15.40
2022-11-24T17:49:28.500Z,16.93
2022-11-24T17:51:56.132Z,16.83
2022-11-24T17:54:45.367Z,16.73
2022-11-24T17:57:12.878Z,16.87
2022-11-24T17:59:40.568Z,16.17
2022-11-24T18:02:10.538Z,16.03
2022-11-24T18:04:38.282Z,16.93
2022-11-24T18:07:06.654Z,15.43
2022-11-24T18:09:35.763Z,15.93
2022-11-24T18:12:03.506Z,16.03
2022-11-24T18:14:33.365Z,16.57
2022-11-24T18:17:01.275Z,16.43
2022-11-24T18:19:29.006Z,15.83
2022-11-24T18:21:56.658Z,15.50
2022-11-24T18:24:24.481Z,15.77
2022-11-24T18:26:53.569Z,16.07
2022-11-24T18:29:21.885Z,16.13
2022-11-24T18:31:49.570Z,15.87
2022-11-24T18:34:17.216Z,16.03
2022-11-24T18:36:47.447Z,15.40
2022-11-24T18:39:17.911Z,16.20
2022-11-24T18:41:45.807Z,16.97
2022-11-24T18:44:14.811Z,18.43
2022-11-24T18:46:42.483Z,20.50
2022-11-24T18:49:10.473Z,21.67
2022-11-24T18:51:38.219Z,22.37
2022-11-24T18:54:06.293Z,21.90
2022-11-24T18:56:34.137Z,21.83
2022-11-24T18:59:01.797Z,22.10
2022-11-24T19:01:31.239Z,21.30
2022-11-24T19:04:00.418Z,20.87
2022-11-24T19:06:32.320Z,22.37
2022-11-24T19:09:01.526Z,22.67
2022-11-24T19:11:32.335Z,23.00
2022-11-24T19:14:00.264Z,25.30
2022-11-24T19:16:27.998Z,25.70
2022-11-24T19:18:59.931Z,27.17
2022-11-24T19:21:28.256Z,29.33
2022-11-24T19:24:01.276Z,30.60
2022-11-24T19:26:32.147Z,30.50
2022-11-24T19:28:59.805Z,32.10
2022-11-24T19:31:27.692Z,31.20
2022-11-24T19:33:58.409Z,34.37
2022-11-24T19:36:26.738Z,41.53
2022-11-24T19:38:56.052Z,42.27
2022-11-24T19:41:25.724Z,40.47
2022-11-24T19:43:54.632Z,36.77
2022-11-24T19:46:23.214Z,33.53
2022-11-24T19:48:54.227Z,31.57
2022-11-24T19:51:25.421Z,29.70
2022-11-24T19:53:53.215Z,28.97
2022-11-24T19:56:22.480Z,26.07
2022-11-24T19:58:51.165Z,24.93
2022-11-24T20:01:20.146Z,21.50
2022-11-24T20:03:50.204Z,20.60
2022-11-24T20:06:17.934Z,20.23
2022-11-24T20:08:47.056Z,19.70
2022-11-24T20:11:16.243Z,19.80
2022-11-24T20:13:45.013Z,19.53
2022-11-24T20:16:14.311Z,20.30
2022-11-24T20:18:43.832Z,18.50
2022-11-24T20:21:14.533Z,19.77
2022-11-24T20:23:42.731Z,19.67
2022-11-24T20:26:14.467Z,18.03
2022-11-24T20:28:42.850Z,19.83
2022-11-24T20:31:12.882Z,20.20
2022-11-24T20:33:41.525Z,20.10
2022-11-24T20:36:11.273Z,19.17
2022-11-24T20:38:39.570Z,20.43
2022-11-24T20:41:09.479Z,19.77
2022-11-24T20:43:39.597Z,18.47
2022-11-24T20:46:10.050Z,17.83
2022-11-24T20:48:38.431Z,17.80
2022-11-24T20:51:07.348Z,18.13
2022-11-24T20:53:35.830Z,17.53
2022-11-24T20:56:06.025Z,17.73
2022-11-24T20:58:35.019Z,17.40
2022-11-24T21:01:08.162Z,15.87
2022-11-24T21:03:41.420Z,16.37
2022-11-24T21:06:11.631Z,15.97
2022-11-24T21:08:40.579Z,16.67
2022-11-24T21:11:10.354Z,15.67
2022-11-24T21:13:38.923Z,15.10
2022-11-24T21:16:14.417Z,15.83
2022-11-24T21:18:42.409Z,15.67
2022-11-24T21:21:10.341Z,15.00
2022-11-24T21:23:38.070Z,15.50
2022-11-24T21:26:10.299Z,14.83
2022-11-24T21:28:43.111Z,13.67
2022-11-24T21:31:14.017Z,14.43
2022-11-24T21:33:42.362Z,13.70
2022-11-24T21:36:10.433Z,13.70
2022-11-24T21:38:38.191Z,14.07
2022-11-24T21:41:07.094Z,13.67
2022-11-24T21:43:34.914Z,14.00
2022-11-24T21:46:03.337Z,13.67
2022-11-24T21:48:33.160Z,13.10
2022-11-24T21:51:01.852Z,13.73
2022-11-24T21:53:32.023Z,14.70
2022-11-24T21:56:01.331Z,12.83
2022-11-24T21:58:29.787Z,13.27
2022-11-24T22:01:02.647Z,13.50
2022-11-24T22:03:30.384Z,11.90
2022-11-24T22:06:00.855Z,12.57
2022-11-24T22:08:30.251Z,12.50
2022-11-24T22:11:01.677Z,12.23
2022-11-24T22:13:29.351Z,13.00
2022-11-24T22:16:01.356Z,12.00
2022-11-24T22:18:32.742Z,11.63
2022-11-24T22:21:02.717Z,12.70
2022-11-24T22:23:30.921Z,12.97
2022-11-24T22:26:03.798Z,12.07
2022-11-24T22:28:33.085Z,12.47
2022-11-24T22:31:05.280Z,11.43
2022-11-24T22:33:33.136Z,9.97
2022-11-24T22:36:02.912Z,10.17
2022-11-24T22:38:31.498Z,9.07
2022-11-24T22:41:03.390Z,9.20
2022-11-24T22:43:32.787Z,8.33
2022-11-24T22:46:04.510Z,8.70
2022-11-24T22:48:32.277Z,8.73
2022-11-24T22:51:05.882Z,9.17
2022-11-24T22:53:33.745Z,9.17
2022-11-24T22:56:04.980Z,8.67
2022-11-24T22:58:33.060Z,9.40
2022-11-24T23:01:05.263Z,8.93
2022-11-24T23:03:33.244Z,9.03
2022-11-24T23:06:01.903Z,7.57
2022-11-24T23:08:31.539Z,8.63
2022-11-24T23:11:00.893Z,8.43
2022-11-24T23:13:28.588Z,8.63
2022-11-24T23:16:01.478Z,7.40
2022-11-24T23:18:29.628Z,7.80
2022-11-24T23:20:57.317Z,8.20
2022-11-24T23:23:24.990Z,8.40
2022-11-24T23:25:54.094Z,8.63
2022-11-24T23:28:21.834Z,8.30
2022-11-24T23:30:49.453Z,8.23
2022-11-24T23:33:17.128Z,8.37
2022-11-24T23:35:44.755Z,8.20
2022-11-24T23:38:12.391Z,7.60
2022-11-24T23:40:40.091Z,7.50
2022-11-24T23:43:09.095Z,7.93
2022-11-24T23:45:36.904Z,7.67
2022-11-24T23:48:05.339Z,8.10
2022-11-24T23:50:33.008Z,6.77
2022-11-24T23:53:00.700Z,7.17
2022-11-24T23:55:28.378Z,7.13
2022-11-24T23:57:56.060Z,7.00
